Météo des aéroports (METAR) proches de Ticheville

 

LFRG - St Gatien, France
Distance from station: N 52km
Mise à jour: 18/08/2018 02:00
nuageux
nuageux
 Wind from O
Vent: O 7 km/h
Température: 14°C
Point de rosée: 12°C
Humidité: 88%
Baromètre: 1024 hPa
Clouds: nuageux
Visibility: 10 km
Cloud details: Few Clouds 396 m
nuageux 579 m
nuageux 884 m
2018/08/18 00:00 LFRG 180000Z AUTO 26004KT 9999 FEW013 BKN019 BKN029 14/12 Q1024
LFRK - Caen/Carpiquet(A, France
Distance from station: ONO 60km
Mise à jour: 18/08/2018 02:00
clair
clair
 Wind from OSO
Vent: OSO 9 km/h
Température: 13°C
Point de rosée: 11°C
Humidité: 88%
Baromètre: 1024 hPa
Résumé: clair
Visibility: greater than 10 km
2018/08/18 00:00 LFRK 180000Z AUTO 25005KT CAVOK 13/11 Q1024
 
LFOH - Le Havre/Octevil, France
Distance from station: NNO 69km
Mise à jour: 18/08/2018 02:00
nuageux
nuageux
 Wind from O
Vent: O 20 km/h
Température: 16°C
Point de rosée: 12°C
Humidité: 77%
Baromètre: 1023 hPa
Clouds: nuageux
Visibility: 10 km
Cloud details: nuageux 549 m
nuageux 762 m
2018/08/18 00:00 LFOH 180000Z AUTO 27011KT 9999 BKN018 BKN025 16/12 Q1023
LFOE - Evreux/Fauville, France
Distance from station: E 70km
Mise à jour: 18/08/2018 02:00
clair
clair
 Wind from O
Vent: O 6 km/h
Température: 13°C
Point de rosée: 10°C
Humidité: 82%
Baromètre: 1024 hPa
Résumé: clair
Visibility: greater than 10 km
2018/08/18 00:00 LFOE 180000Z AUTO 26003KT CAVOK 13/10 Q1024 NOSIG
 
LFOP - Rouen/Boos (aut), France
Distance from station: NE 83km
Mise à jour: 18/08/2018 02:00
nuageux
nuageux
 Wind from SO
Vent: SO 6 km/h
Température: 11°C
Point de rosée: 10°C
Humidité: 94%
Baromètre: 1024 hPa
Clouds: nuageux
Visibility: 10 km
Cloud details: nuageux 823 m
2018/08/18 00:00 LFOP 180000Z AUTO 22003KT 9999 BKN027 11/10 Q1024
LFRM - Le Mans/Arnage(A, France
Distance from station: S 107km
Mise à jour: 18/08/2018 02:00
clair
clair
 Wind from varies
Vent: varies 4 km/h
Température: 16°C
Point de rosée: 10°C
Humidité: 68%
Baromètre: 1024 hPa
Résumé: clair
Visibility: greater than 10 km
2018/08/18 00:00 LFRM 180000Z AUTO VRB02KT CAVOK 16/10 Q1024